Time;durP1;ratioP1;P1;durP2;ratioP2;P2;SDS_P1;SDS_P2;PMS_P1;PMS_P2;Temp;Humidity;BMP_temperature;BMP_pressure;BME280_temperature;BME280_humidity;BME280_pressure;Samples;Min_cycle;Max_cycle;Signal;HPM_P1;HPM_P2
2023/11/07 00:02:12;;;;;;;;;;;;;;;10.79;98.95;99739.50;5013089;28;19968;-74
2023/11/07 00:04:38;;;;;;;;;;;;;;;10.65;99.51;99741.66;5020208;28;19917;-73
2023/11/07 00:07:04;;;;;;;;;;;;;;;10.60;99.39;99744.59;5030699;28;20327;-73
2023/11/07 00:09:30;;;;;;;;;;;;;;;10.52;99.96;99743.47;5031465;28;19917;-74
2023/11/07 00:11:56;;;;;;;;;;;;;;;10.47;100.00;99735.25;5031652;28;20315;-74
2023/11/07 00:14:22;;;;;;;;;;;;;;;10.55;100.00;99733.59;5030178;28;19913;-74
2023/11/07 00:16:48;;;;;;;;;;;;;;;10.55;100.00;99742.78;5031313;28;19914;-74
2023/11/07 00:19:13;;;;;;;;;;;;;;;10.35;100.00;99733.03;5031180;28;20323;-74
2023/11/07 00:21:38;;;;;;;;;;;;;;;10.24;100.00;99738.94;5033436;28;19913;-74
2023/11/07 00:24:04;;;;;;;;;;;;;;;10.16;100.00;99742.56;5034089;28;20397;-74
2023/11/07 00:26:30;;;;;;;;;;;;;;;9.94;100.00;99740.69;5035375;28;19914;-74
2023/11/07 00:28:55;;;;;;;;;;;;;;;9.93;100.00;99741.84;5032231;28;19923;-73
2023/11/07 00:31:20;;;;;;;;;;;;;;;10.09;100.00;99748.63;5035241;28;19917;-74
2023/11/07 00:33:46;;;;;;;;;;;;;;;9.86;100.00;99749.88;5031303;28;19960;-74
2023/11/07 00:36:11;;;;;;;;;;;;;;;9.85;100.00;99745.44;5035241;28;19924;-73
2023/11/07 00:38:36;;;;;;;;;;;;;;;9.80;100.00;99746.41;5033819;28;19917;-74
2023/11/07 00:41:03;;;;;;;;;;;;;;;9.66;100.00;99750.13;5035058;28;19956;-74
2023/11/07 00:43:28;;;;;;;;;;;;;;;9.52;100.00;99753.03;5033387;28;20050;-74
2023/11/07 00:45:54;;;;;;;;;;;;;;;9.47;100.00;99749.53;5033513;28;20426;-74
2023/11/07 00:48:19;;;;;;;;;;;;;;;9.58;100.00;99756.50;5034082;28;19928;-73
2023/11/07 00:50:44;;;;;;;;;;;;;;;9.51;100.00;99753.34;5034902;28;19917;-74
2023/11/07 00:53:10;;;;;;;;;;;;;;;9.52;100.00;99752.19;5015392;28;20116;-73
2023/11/07 00:55:35;;;;;;;;;;;;;;;9.47;100.00;99749.53;5029436;28;19921;-74
2023/11/07 00:58:00;;;;;;;;;;;;;;;9.45;100.00;99755.44;5034735;28;19927;-73
2023/11/07 01:00:27;;;;;;;;;;;;;;;9.33;100.00;99758.00;5033482;28;19987;-74
2023/11/07 01:02:52;;;;;;;;;;;;;;;9.39;100.00;99754.75;5033489;28;19913;-74
2023/11/07 01:05:18;;;;;;;;;;;;;;;9.51;100.00;99764.50;5032975;28;20403;-73
2023/11/07 01:07:44;;;;;;;;;;;;;;;9.47;100.00;99771.88;5027811;28;19940;-73
2023/11/07 01:10:09;;;;;;;;;;;;;;;9.45;100.00;99768.59;5013495;28;19917;-73
2023/11/07 01:12:34;;;;;;;;;;;;;;;9.37;100.00;99776.59;5014811;28;19921;-73
2023/11/07 01:15:00;;;;;;;;;;;;;;;9.43;100.00;99776.47;5014618;28;19992;-73
2023/11/07 01:17:26;;;;;;;;;;;;;;;9.58;100.00;99778.00;5014723;28;19913;-72
2023/11/07 01:19:52;;;;;;;;;;;;;;;9.62;100.00;99779.84;5030770;28;19936;-73
2023/11/07 01:22:17;;;;;;;;;;;;;;;9.61;100.00;99785.75;5033017;28;19918;-72
2023/11/07 01:24:42;;;;;;;;;;;;;;;9.64;100.00;99785.13;5034589;28;20111;-73
2023/11/07 01:27:08;;;;;;;;;;;;;;;9.53;100.00;99790.97;5015757;28;19925;-73
2023/11/07 01:29:34;;;;;;;;;;;;;;;9.50;100.00;99788.00;5012827;28;19918;-72
2023/11/07 01:31:59;;;;;;;;;;;;;;;9.46;100.00;99793.38;5028850;28;19920;-73
2023/11/07 01:34:24;;;;;;;;;;;;;;;9.13;100.00;99794.50;5033920;28;19917;-73
2023/11/07 01:36:50;;;;;;;;;;;;;;;9.10;100.00;99800.72;5032808;28;19913;-73
2023/11/07 01:39:15;;;;;;;;;;;;;;;9.24;100.00;99791.44;5033995;28;19917;-73
2023/11/07 01:41:41;;;;;;;;;;;;;;;9.20;100.00;99788.47;5029148;28;19917;-73
2023/11/07 01:44:07;;;;;;;;;;;;;;;9.13;100.00;99790.91;5028523;28;19959;-73
2023/11/07 01:46:32;;;;;;;;;;;;;;;9.12;100.00;99801.22;5029718;28;19968;-73
2023/11/07 01:48:58;;;;;;;;;;;;;;;9.16;100.00;99806.16;5014018;28;20032;-74
2023/11/07 01:51:24;;;;;;;;;;;;;;;9.14;100.00;99798.13;5026508;28;19984;-74
2023/11/07 01:53:50;;;;;;;;;;;;;;;9.14;100.00;99806.50;5033789;28;19924;-74
2023/11/07 01:56:16;;;;;;;;;;;;;;;9.13;100.00;99807.63;5032008;28;20293;-73
2023/11/07 01:58:41;;;;;;;;;;;;;;;9.28;100.00;99798.03;5032496;28;19920;-73
2023/11/07 02:01:06;;;;;;;;;;;;;;;9.43;100.00;99809.97;5018146;28;19917;-73
2023/11/07 02:03:36;;;;;;;;;;;;;;;9.28;100.00;99814.78;5032143;28;19917;-74
2023/11/07 02:06:02;;;;;;;;;;;;;;;9.10;100.00;99806.31;5033398;28;19917;-73
2023/11/07 02:08:27;;;;;;;;;;;;;;;9.25;100.00;99821.00;5033460;28;20289;-73
2023/11/07 02:10:52;;;;;;;;;;;;;;;9.20;100.00;99809.97;5033385;28;19920;-73
2023/11/07 02:13:17;;;;;;;;;;;;;;;9.08;100.00;99822.53;5033470;28;20292;-73
2023/11/07 02:15:43;;;;;;;;;;;;;;;9.02;100.00;99814.59;5031448;28;20006;-73
2023/11/07 02:18:08;;;;;;;;;;;;;;;9.08;100.00;99813.31;5032558;28;19924;-73
2023/11/07 02:20:38;;;;;;;;;;;;;;;8.98;100.00;99814.41;5013388;28;20315;-74
2023/11/07 02:23:07;;;;;;;;;;;;;;;9.14;100.00;99812.06;5013334;28;20308;-74
2023/11/07 02:25:33;;;;;;;;;;;;;;;9.21;100.00;99806.06;5013634;28;19913;-74
2023/11/07 02:27:58;;;;;;;;;;;;;;;8.98;100.00;99808.84;5013284;28;19918;-73
2023/11/07 02:30:25;;;;;;;;;;;;;;;8.92;100.00;99815.66;5027575;28;20366;-74
2023/11/07 02:32:50;;;;;;;;;;;;;;;8.93;100.00;99808.94;5012380;28;20369;-74
2023/11/07 02:35:16;;;;;;;;;;;;;;;8.88;100.00;99809.91;5013122;28;19940;-73
2023/11/07 02:37:41;;;;;;;;;;;;;;;8.69;100.00;99816.47;5011840;28;19928;-74
2023/11/07 02:40:10;;;;;;;;;;;;;;;8.62;100.00;99820.81;5013291;28;19917;-73
2023/11/07 02:42:35;;;;;;;;;;;;;;;8.65;100.00;99822.97;5016625;28;19940;-73
2023/11/07 02:45:01;;;;;;;;;;;;;;;8.61;100.00;99824.75;5032741;28;19913;-73
2023/11/07 02:47:26;;;;;;;;;;;;;;;8.47;100.00;99819.16;5030752;28;19925;-74
2023/11/07 02:49:52;;;;;;;;;;;;;;;8.52;100.00;99819.09;5032733;28;20020;-73
2023/11/07 02:52:17;;;;;;;;;;;;;;;8.46;100.00;99823.94;5016068;28;19963;-73
2023/11/07 02:54:42;;;;;;;;;;;;;;;8.45;100.00;99827.84;5014259;28;20003;-74
2023/11/07 02:57:08;;;;;;;;;;;;;;;8.53;100.00;99829.91;5032303;28;19921;-74
2023/11/07 02:59:33;;;;;;;;;;;;;;;8.49;100.00;99831.66;5032581;28;19975;-73
2023/11/07 03:02:00;;;;;;;;;;;;;;;8.52;100.00;99838.63;5030215;28;20416;-73
2023/11/07 03:04:26;;;;;;;;;;;;;;;8.69;100.00;99844.34;5030893;28;19921;-73
2023/11/07 03:06:52;;;;;;;;;;;;;;;8.64;100.00;99840.84;5031625;28;19913;-74
2023/11/07 03:09:18;;;;;;;;;;;;;;;8.44;100.00;99848.47;5011233;28;19921;-73
2023/11/07 03:11:43;;;;;;;;;;;;;;;8.31;100.00;99847.38;5012553;28;20435;-74
2023/11/07 03:14:08;;;;;;;;;;;;;;;8.43;100.00;99852.41;5012555;28;19920;-73
2023/11/07 03:16:35;;;;;;;;;;;;;;;8.35;100.00;99853.16;5029243;28;20430;-74
2023/11/07 03:19:01;;;;;;;;;;;;;;;8.38;100.00;99849.75;5029237;28;19917;-73
2023/11/07 03:21:26;;;;;;;;;;;;;;;8.32;100.00;99851.81;5032114;28;19924;-73
2023/11/07 03:23:51;;;;;;;;;;;;;;;8.32;100.00;99854.59;5030815;28;19914;-73
2023/11/07 03:26:17;;;;;;;;;;;;;;;8.46;100.00;99849.03;5030081;28;19921;-73
2023/11/07 03:28:42;;;;;;;;;;;;;;;8.26;100.00;99856.66;5030694;28;19921;-73
2023/11/07 03:31:07;;;;;;;;;;;;;;;8.06;100.00;99859.84;5029417;28;19913;-74
2023/11/07 03:33:33;;;;;;;;;;;;;;;8.26;100.00;99859.44;5031484;28;19916;-74
2023/11/07 03:35:58;;;;;;;;;;;;;;;8.15;100.00;99855.22;5029833;28;19960;-73
2023/11/07 03:38:23;;;;;;;;;;;;;;;8.18;100.00;99860.16;5030688;28;19924;-73
2023/11/07 03:40:49;;;;;;;;;;;;;;;8.25;100.00;99863.38;5031880;28;19920;-74
2023/11/07 03:43:15;;;;;;;;;;;;;;;8.32;100.00;99865.75;5026653;28;20308;-74
2023/11/07 03:45:41;;;;;;;;;;;;;;;8.48;100.00;99863.47;5024767;28;19940;-73
2023/11/07 03:48:06;;;;;;;;;;;;;;;8.47;100.00;99867.38;5029968;28;19921;-74
2023/11/07 03:50:32;;;;;;;;;;;;;;;8.46;100.00;99857.38;5031808;28;19921;-74
2023/11/07 03:52:57;;;;;;;;;;;;;;;8.45;100.00;99866.03;5031649;28;19920;-73
2023/11/07 03:55:22;;;;;;;;;;;;;;;8.62;100.00;99860.66;5030384;28;20377;-74
2023/11/07 03:57:48;;;;;;;;;;;;;;;8.66;100.00;99860.88;5030036;28;20405;-74
2023/11/07 04:00:13;;;;;;;;;;;;;;;8.78;100.00;99854.78;5019331;28;19917;-74
2023/11/07 04:02:38;;;;;;;;;;;;;;;8.78;100.00;99868.72;5022625;28;19917;-74
2023/11/07 04:05:04;;;;;;;;;;;;;;;8.76;100.00;99865.41;5030230;28;20280;-74
2023/11/07 04:07:29;;;;;;;;;;;;;;;8.66;100.00;99874.81;5030058;28;20410;-74
2023/11/07 04:09:55;;;;;;;;;;;;;;;8.40;100.00;99864.19;5029734;28;19952;-74
2023/11/07 04:12:20;;;;;;;;;;;;;;;8.31;100.00;99868.81;5031382;28;19971;-74
2023/11/07 04:14:47;;;;;;;;;;;;;;;8.37;100.00;99876.78;5030579;28;19921;-74
2023/11/07 04:17:12;;;;;;;;;;;;;;;8.13;100.00;99877.81;5030507;28;19940;-74
2023/11/07 04:19:37;;;;;;;;;;;;;;;8.15;100.00;99883.06;5031500;28;19920;-74
2023/11/07 04:22:04;;;;;;;;;;;;;;;8.06;100.00;99888.53;5031118;28;19917;-74
2023/11/07 04:24:30;;;;;;;;;;;;;;;7.93;100.00;99881.81;5031496;28;19920;-73
2023/11/07 04:26:56;;;;;;;;;;;;;;;7.88;100.00;99884.69;5031256;28;19913;-73
2023/11/07 04:29:23;;;;;;;;;;;;;;;7.82;100.00;99881.19;5030037;28;19917;-73
2023/11/07 04:31:48;;;;;;;;;;;;;;;7.93;100.00;99879.03;5026466;28;19917;-74
2023/11/07 04:34:13;;;;;;;;;;;;;;;7.94;100.00;99879.88;5028175;28;20416;-73
2023/11/07 04:36:39;;;;;;;;;;;;;;;8.12;100.00;99887.28;5030466;28;19917;-71
2023/11/07 04:39:05;;;;;;;;;;;;;;;8.03;100.00;99891.13;5030119;28;20384;-72
2023/11/07 04:41:30;;;;;;;;;;;;;;;8.08;100.00;99886.28;5021067;28;20008;-70
2023/11/07 04:43:57;;;;;;;;;;;;;;;8.08;100.00;99891.84;5030467;28;20020;-69
2023/11/07 04:46:22;;;;;;;;;;;;;;;7.94;100.00;99900.16;5025101;28;19923;-70
2023/11/07 04:48:47;;;;;;;;;;;;;;;7.84;100.00;99903.13;5027647;28;19921;-70
2023/11/07 04:51:17;;;;;;;;;;;;;;;7.82;100.00;99914.59;5029793;28;20426;-70
2023/11/07 04:53:44;;;;;;;;;;;;;;;7.83;100.00;99910.69;5029080;28;19913;-70
2023/11/07 04:56:10;;;;;;;;;;;;;;;7.94;100.00;99914.09;5029417;28;19921;-71
2023/11/07 04:58:36;;;;;;;;;;;;;;;7.93;100.00;99914.44;5027437;28;20455;-71
2023/11/07 05:01:01;;;;;;;;;;;;;;;8.14;100.00;99917.66;5029286;28;20366;-71
2023/11/07 05:03:27;;;;;;;;;;;;;;;8.13;100.00;99916.81;5030253;28;19913;-70
2023/11/07 05:05:53;;;;;;;;;;;;;;;8.33;100.00;99922.31;5032117;28;19983;-70
2023/11/07 05:08:19;;;;;;;;;;;;;;;8.32;100.00;99934.56;5026081;28;20016;-70
2023/11/07 05:10:45;;;;;;;;;;;;;;;8.01;100.00;99936.81;5030330;28;20007;-70
2023/11/07 05:13:10;;;;;;;;;;;;;;;8.19;100.00;99931.47;5033789;28;19984;-69
2023/11/07 05:15:36;;;;;;;;;;;;;;;8.18;100.00;99940.16;5031122;28;20132;-69
2023/11/07 05:18:02;;;;;;;;;;;;;;;8.38;100.00;99944.50;5033566;28;19917;-69
2023/11/07 05:20:27;;;;;;;;;;;;;;;8.23;100.00;99932.53;5031292;28;20336;-70
2023/11/07 05:22:54;;;;;;;;;;;;;;;8.21;100.00;99936.75;5032696;28;19913;-71
2023/11/07 05:25:20;;;;;;;;;;;;;;;8.48;100.00;99937.91;5031707;28;19917;-72
2023/11/07 05:27:45;;;;;;;;;;;;;;;8.46;100.00;99929.03;5033927;28;20400;-72
2023/11/07 05:30:11;;;;;;;;;;;;;;;8.61;100.00;99931.53;5026809;28;19917;-72
2023/11/07 05:32:37;;;;;;;;;;;;;;;8.59;100.00;99935.78;5031821;28;20381;-72
2023/11/07 05:35:05;;;;;;;;;;;;;;;8.37;100.00;99931.72;5033904;28;19971;-72
2023/11/07 05:37:32;;;;;;;;;;;;;;;8.30;100.00;99934.91;5030944;28;19960;-74
2023/11/07 05:39:57;;;;;;;;;;;;;;;8.15;100.00;99939.66;5025520;28;19921;-74
2023/11/07 05:42:22;;;;;;;;;;;;;;;8.48;100.00;99943.47;5031089;28;19917;-72
2023/11/07 05:44:48;;;;;;;;;;;;;;;8.71;100.00;99953.63;5031614;28;20032;-73
2023/11/07 05:47:13;;;;;;;;;;;;;;;8.34;100.00;99951.84;5034005;28;19924;-73
2023/11/07 05:49:39;;;;;;;;;;;;;;;8.43;100.00;99959.19;5033998;28;19921;-74
2023/11/07 05:52:04;;;;;;;;;;;;;;;8.71;100.00;99959.19;5031965;28;19952;-71
2023/11/07 05:54:30;;;;;;;;;;;;;;;8.52;100.00;99956.53;5033679;28;19913;-70
2023/11/07 05:56:55;;;;;;;;;;;;;;;8.63;100.00;99970.25;5027998;28;19940;-71
2023/11/07 05:59:20;;;;;;;;;;;;;;;8.59;100.00;99974.81;5012844;28;19913;-71
2023/11/07 06:01:46;;;;;;;;;;;;;;;8.49;100.00;99978.56;5013930;28;19959;-70
2023/11/07 06:04:29;;;;;;;;;;;;;;;8.60;100.00;99976.47;5012378;28;20296;-70
2023/11/07 06:06:54;;;;;;;;;;;;;;;8.66;100.00;99975.22;5013780;28;20407;-70
2023/11/07 06:09:19;;;;;;;;;;;;;;;8.76;100.00;99975.00;5021190;28;19917;-70
2023/11/07 06:11:45;;;;;;;;;;;;;;;8.97;100.00;99977.38;5032415;28;19924;-70
2023/11/07 06:14:10;;;;;;;;;;;;;;;9.11;100.00;99967.00;5032845;28;19960;-70
2023/11/07 06:16:39;;;;;;;;;;;;;;;9.28;100.00;99968.31;5025274;28;19917;-73
2023/11/07 06:19:04;;;;;;;;;;;;;;;9.45;100.00;99975.22;5032141;28;20331;-72
2023/11/07 06:21:30;;;;;;;;;;;;;;;9.64;100.00;99981.44;5027683;28;19921;-70
2023/11/07 06:23:55;;;;;;;;;;;;;;;9.93;100.00;99985.78;5033111;28;19913;-71
2023/11/07 06:26:21;;;;;;;;;;;;;;;9.92;100.00;99991.66;5029491;28;19975;-72
2023/11/07 06:28:48;;;;;;;;;;;;;;;10.10;100.00;99987.03;5031290;28;19927;-71
2023/11/07 06:31:21;;;;;;;;;;;;;;;9.89;100.00;99987.53;5031208;28;19917;-69
2023/11/07 06:33:47;;;;;;;;;;;;;;;10.01;100.00;99994.50;5032987;28;20440;-70
2023/11/07 06:36:12;;;;;;;;;;;;;;;10.14;100.00;99981.63;5028965;28;19921;-71
2023/11/07 06:38:37;;;;;;;;;;;;;;;10.31;100.00;99989.28;5013721;28;19943;-72
2023/11/07 06:41:03;;;;;;;;;;;;;;;10.41;99.21;99991.84;5029018;28;19924;-70
2023/11/07 06:43:29;;;;;;;;;;;;;;;10.44;98.91;99979.16;5027711;28;19917;-70
2023/11/07 06:45:54;;;;;;;;;;;;;;;10.58;99.06;99987.47;5028842;28;20405;-68
2023/11/07 06:48:19;;;;;;;;;;;;;;;10.64;97.61;99989.78;5028479;28;19925;-70
2023/11/07 06:50:46;;;;;;;;;;;;;;;10.62;97.57;99994.91;5028253;28;19975;-72
2023/11/07 06:53:11;;;;;;;;;;;;;;;10.70;98.73;100000.88;5027061;28;20411;-69
2023/11/07 06:55:37;;;;;;;;;;;;;;;10.56;97.25;100001.78;5028520;28;19925;-70
2023/11/07 06:58:04;;;;;;;;;;;;;;;10.71;97.38;100006.13;5028677;28;19924;-70
2023/11/07 07:00:29;;;;;;;;;;;;;;;10.77;96.52;100006.78;5028522;28;19913;-71
2023/11/07 07:02:55;;;;;;;;;;;;;;;10.72;97.87;100007.75;5028224;28;20328;-71
2023/11/07 07:05:21;;;;;;;;;;;;;;;10.70;97.55;100001.66;5024116;28;20426;-72
2023/11/07 07:07:46;;;;;;;;;;;;;;;10.84;98.77;100004.38;5029856;28;20587;-71
2023/11/07 07:10:12;;;;;;;;;;;;;;;10.72;99.51;99996.56;5019694;28;20376;-71
2023/11/07 07:12:38;;;;;;;;;;;;;;;10.88;98.97;100002.56;5025930;28;19917;-71
2023/11/07 07:15:05;;;;;;;;;;;;;;;11.06;97.50;100003.44;5029381;28;20004;-71
2023/11/07 07:17:31;;;;;;;;;;;;;;;11.10;96.90;100003.63;5015630;28;20072;-72
2023/11/07 07:19:57;;;;;;;;;;;;;;;11.21;95.25;99999.34;5025425;28;19975;-71
2023/11/07 07:22:27;;;;;;;;;;;;;;;11.18;95.41;100010.38;5027061;28;19921;-71
2023/11/07 07:24:55;;;;;;;;;;;;;;;11.28;96.76;100004.47;5031129;28;19928;-71
2023/11/07 07:27:26;;;;;;;;;;;;;;;11.41;94.34;100001.84;5016181;28;19980;-71
2023/11/07 07:29:53;;;;;;;;;;;;;;;11.45;95.07;100003.69;5026036;28;19917;-71
2023/11/07 07:32:20;;;;;;;;;;;;;;;11.55;94.44;100002.53;5031747;28;19917;-71
2023/11/07 07:34:45;;;;;;;;;;;;;;;11.64;94.91;100005.31;5030999;28;19917;-72
2023/11/07 07:37:10;;;;;;;;;;;;;;;11.85;93.57;99999.06;5030111;28;19971;-72
2023/11/07 07:39:36;;;;;;;;;;;;;;;11.94;93.36;100000.72;5016846;28;20376;-71
2023/11/07 07:42:11;;;;;;;;;;;;;;;11.99;92.23;100002.50;5031535;28;20004;-71
2023/11/07 07:44:37;;;;;;;;;;;;;;;12.02;91.20;100004.69;5029971;28;19924;-71
2023/11/07 07:47:02;;;;;;;;;;;;;;;12.19;92.00;100003.00;5029771;28;20354;-71
2023/11/07 07:49:30;;;;;;;;;;;;;;;12.31;91.60;99999.53;5031647;28;19958;-71
2023/11/07 07:51:58;;;;;;;;;;;;;;;12.36;91.30;99999.34;5031856;28;19959;-71
2023/11/07 07:54:24;;;;;;;;;;;;;;;12.49;91.02;100006.72;5030947;28;19974;-72
2023/11/07 07:56:54;;;;;;;;;;;;;;;12.55;89.94;100003.72;5030944;28;19925;-71
2023/11/07 07:59:23;;;;;;;;;;;;;;;12.60;89.61;99995.13;5029649;28;20425;-71
2023/11/07 08:01:57;;;;;;;;;;;;;;;12.84;89.71;99996.53;5031316;28;19913;-71
2023/11/07 08:04:23;;;;;;;;;;;;;;;12.84;90.59;99994.53;5031153;28;19943;-71
2023/11/07 08:06:48;;;;;;;;;;;;;;;13.05;90.15;100000.22;5015521;28;19917;-71
2023/11/07 08:09:14;;;;;;;;;;;;;;;13.12;89.87;99999.69;5029903;28;20389;-70
2023/11/07 08:11:39;;;;;;;;;;;;;;;13.30;89.58;100000.41;5030167;28;19928;-70
2023/11/07 08:14:05;;;;;;;;;;;;;;;13.51;90.14;100010.84;5022470;28;19917;-72
2023/11/07 08:16:30;;;;;;;;;;;;;;;13.59;87.82;100009.16;5023344;28;20344;-71
2023/11/07 08:18:55;;;;;;;;;;;;;;;13.66;85.28;100006.59;5014071;28;19913;-71
2023/11/07 08:21:21;;;;;;;;;;;;;;;13.72;84.80;100008.06;5029743;28;19924;-71
2023/11/07 08:23:47;;;;;;;;;;;;;;;13.70;84.87;100015.19;5025347;28;19921;-70
2023/11/07 08:26:13;;;;;;;;;;;;;;;13.86;83.24;100021.81;5024875;28;20362;-71
2023/11/07 08:28:43;;;;;;;;;;;;;;;13.99;83.89;100017.06;5018332;28;19921;-72
2023/11/07 08:31:09;;;;;;;;;;;;;;;14.14;82.36;100014.78;5021198;28;20013;-71
2023/11/07 08:33:37;;;;;;;;;;;;;;;14.28;84.33;100023.75;5028405;28;20003;-71
2023/11/07 08:36:03;;;;;;;;;;;;;;;14.45;82.32;100025.53;5026570;28;19948;-70
2023/11/07 08:38:28;;;;;;;;;;;;;;;14.40;80.61;100016.50;5031107;28;19921;-71
2023/11/07 08:40:53;;;;;;;;;;;;;;;14.53;79.95;100026.63;5031366;28;19924;-71
2023/11/07 08:43:19;;;;;;;;;;;;;;;14.57;80.43;100026.75;5033059;28;19952;-71
2023/11/07 08:45:45;;;;;;;;;;;;;;;14.71;79.87;100021.59;5034633;28;20290;-71
2023/11/07 08:48:11;;;;;;;;;;;;;;;15.00;79.18;100019.78;5034627;28;20008;-72
2023/11/07 08:50:37;;;;;;;;;;;;;;;15.22;77.95;100014.88;5032355;28;19990;-72
2023/11/07 08:53:05;;;;;;;;;;;;;;;15.46;76.60;100016.00;5025620;28;19925;-70
2023/11/07 08:55:30;;;;;;;;;;;;;;;15.48;75.71;100007.19;5032449;28;19975;-68
2023/11/07 08:57:55;;;;;;;;;;;;;;;15.53;75.16;100010.56;5033186;28;19917;-67
2023/11/07 09:00:26;;;;;;;;;;;;;;;15.70;74.33;100003.84;5034239;28;20027;-67
2023/11/07 09:02:52;;;;;;;;;;;;;;;15.70;74.72;99998.19;5032699;28;19924;-69
2023/11/07 09:05:18;;;;;;;;;;;;;;;15.93;73.86;100005.34;5037355;28;20011;-68
2023/11/07 09:07:43;;;;;;;;;;;;;;;16.19;72.05;100007.69;5026667;28;19972;-68
2023/11/07 09:10:11;;;;;;;;;;;;;;;16.37;72.66;100004.53;5031387;28;19967;-68
2023/11/07 09:12:36;;;;;;;;;;;;;;;16.40;71.94;100004.63;5034194;28;20000;-68
2023/11/07 09:15:05;;;;;;;;;;;;;;;16.47;69.90;100006.00;5033489;28;20060;-67
2023/11/07 09:17:31;;;;;;;;;;;;;;;16.62;68.12;100004.38;5027182;28;20055;-70
2023/11/07 09:19:57;;;;;;;;;;;;;;;16.70;67.95;99998.56;5028276;28;20380;-70
2023/11/07 09:22:22;;;;;;;;;;;;;;;16.81;64.48;99993.16;5015702;28;19913;-70
2023/11/07 09:24:48;;;;;;;;;;;;;;;16.88;62.01;99989.69;5020731;28;19917;-70
2023/11/07 09:27:13;;;;;;;;;;;;;;;17.11;62.39;99974.94;5025718;28;20419;-67
2023/11/07 09:29:39;;;;;;;;;;;;;;;16.90;63.37;99970.41;5031818;28;19920;-67
2023/11/07 09:32:05;;;;;;;;;;;;;;;17.02;61.45;99968.69;5030804;28;20016;-67
2023/11/07 09:34:30;;;;;;;;;;;;;;;17.14;60.69;99971.41;5032330;28;19913;-67
2023/11/07 09:36:56;;;;;;;;;;;;;;;17.11;61.29;99961.63;5030692;28;19921;-67
2023/11/07 09:39:22;;;;;;;;;;;;;;;17.11;59.66;99958.81;5033908;28;19913;-70
2023/11/07 09:41:47;;;;;;;;;;;;;;;17.20;59.59;99950.13;5029176;28;20024;-71
2023/11/07 09:44:13;;;;;;;;;;;;;;;17.42;60.38;99953.44;5030654;28;19921;-70
2023/11/07 09:46:40;;;;;;;;;;;;;;;17.54;58.39;99939.16;5030072;28;19924;-70
2023/11/07 09:49:07;;;;;;;;;;;;;;;17.13;59.86;99924.50;5028504;28;19921;-70
2023/11/07 09:51:35;;;;;;;;;;;;;;;17.39;59.85;99920.25;5031957;28;19913;-70
2023/11/07 09:54:01;;;;;;;;;;;;;;;17.56;60.78;99923.84;5032008;28;20310;-70
2023/11/07 09:56:29;;;;;;;;;;;;;;;17.72;59.65;99916.06;5027309;28;20570;-70
2023/11/07 09:58:56;;;;;;;;;;;;;;;18.06;58.23;99918.41;5025832;28;19917;-70
2023/11/07 10:01:21;;;;;;;;;;;;;;;18.06;57.29;99907.88;5028426;28;20359;-70
2023/11/07 10:03:48;;;;;;;;;;;;;;;18.10;58.74;99905.94;5028883;28;20204;-70
2023/11/07 10:06:13;;;;;;;;;;;;;;;18.04;57.50;99904.59;5029948;28;19920;-70
2023/11/07 10:08:38;;;;;;;;;;;;;;;18.45;57.18;99898.47;5031175;28;19918;-70
2023/11/07 10:11:11;;;;;;;;;;;;;;;18.47;57.08;99898.09;5031504;28;19963;-70
2023/11/07 10:13:36;;;;;;;;;;;;;;;18.37;57.35;99891.84;5030132;28;19921;-70
2023/11/07 10:16:08;;;;;;;;;;;;;;;18.20;57.23;99887.50;5025302;28;19917;-70
2023/11/07 10:18:49;;;;;;;;;;;;;;;18.45;57.71;99889.97;5030550;28;19921;-72
2023/11/07 10:21:15;;;;;;;;;;;;;;;18.54;57.57;99886.88;5031183;28;19913;-70
2023/11/07 10:23:41;;;;;;;;;;;;;;;18.49;57.58;99890.03;5030407;28;19995;-70
2023/11/07 10:26:11;;;;;;;;;;;;;;;18.58;56.48;99887.75;5030654;28;19913;-70
2023/11/07 10:28:37;;;;;;;;;;;;;;;18.83;57.05;99887.34;5031518;28;20316;-70
2023/11/07 10:31:02;;;;;;;;;;;;;;;18.73;57.44;99876.66;5029972;28;19913;-70
2023/11/07 10:33:29;;;;;;;;;;;;;;;18.72;56.93;99872.19;5030242;28;20405;-70
2023/11/07 10:35:55;;;;;;;;;;;;;;;18.76;56.80;99875.88;5031580;28;19913;-70
2023/11/07 10:38:21;;;;;;;;;;;;;;;18.85;55.61;99867.94;5027441;28;20384;-70
2023/11/07 10:40:50;;;;;;;;;;;;;;;19.03;55.71;99864.56;5029324;28;19920;-70
2023/11/07 10:43:35;;;;;;;;;;;;;;;19.17;55.66;99856.22;5031077;28;19913;-70
2023/11/07 10:46:10;;;;;;;;;;;;;;;19.34;55.61;99854.84;5026322;28;19921;-70
2023/11/07 10:48:40;;;;;;;;;;;;;;;19.60;55.58;99844.59;5028840;28;19921;-70
2023/11/07 10:51:08;;;;;;;;;;;;;;;19.77;55.69;99843.16;5031088;28;19921;-70
2023/11/07 10:53:33;;;;;;;;;;;;;;;19.92;54.38;99840.50;5030785;28;19917;-70
2023/11/07 10:55:59;;;;;;;;;;;;;;;19.52;54.29;99842.06;5028661;28;20449;-70
2023/11/07 10:58:27;;;;;;;;;;;;;;;19.59;53.96;99840.13;5023952;28;20032;-70
2023/11/07 11:00:54;;;;;;;;;;;;;;;19.70;53.11;99837.44;5030539;28;20364;-70
2023/11/07 11:03:19;;;;;;;;;;;;;;;19.89;52.88;99836.41;5027445;28;19925;-70
2023/11/07 11:05:46;;;;;;;;;;;;;;;20.21;51.60;99837.94;5024080;28;20407;-70
2023/11/07 11:08:16;;;;;;;;;;;;;;;20.24;50.74;99825.81;5029627;28;19928;-68
2023/11/07 11:10:41;;;;;;;;;;;;;;;20.28;49.95;99825.84;5019304;28;20454;-69
2023/11/07 11:13:14;;;;;;;;;;;;;;;20.20;50.84;99822.13;5024482;28;20071;-70
2023/11/07 11:15:40;;;;;;;;;;;;;;;20.45;48.92;99818.66;5025673;28;19913;-70
2023/11/07 11:18:08;;;;;;;;;;;;;;;20.43;48.60;99801.22;5029859;28;19924;-70
2023/11/07 11:20:50;;;;;;;;;;;;;;;20.67;50.05;99801.78;5030010;28;19967;-70
2023/11/07 11:23:41;;;;;;;;;;;;;;;20.73;50.89;99788.81;5029908;28;20486;-70
2023/11/07 11:26:22;;;;;;;;;;;;;;;20.81;50.16;99784.81;5030196;28;20493;-70
2023/11/07 11:28:47;;;;;;;;;;;;;;;20.84;50.38;99775.50;5028686;28;20388;-70
2023/11/07 11:31:14;;;;;;;;;;;;;;;20.89;47.95;99780.81;5026179;28;19924;-70
2023/11/07 11:33:42;;;;;;;;;;;;;;;21.06;46.74;99777.63;5029639;28;20384;-70
2023/11/07 11:36:32;;;;;;;;;;;;;;;21.20;45.70;99779.72;5029934;28;19921;-70
2023/11/07 11:38:57;;;;;;;;;;;;;;;20.33;46.28;99772.31;5011264;28;19943;-70
2023/11/07 11:41:42;;;;;;;;;;;;;;;20.67;47.25;99767.66;5026714;28;20400;-71
2023/11/07 11:44:15;;;;;;;;;;;;;;;21.10;45.81;99765.03;5028154;28;19921;-72
2023/11/07 11:46:40;;;;;;;;;;;;;;;21.04;46.53;99760.97;5028542;28;19917;-73
2023/11/07 11:49:12;;;;;;;;;;;;;;;21.29;45.58;99755.34;5027864;28;19928;-71
2023/11/07 11:51:41;;;;;;;;;;;;;;;21.33;45.49;99752.53;5014664;28;19925;-71
2023/11/07 11:54:11;;;;;;;;;;;;;;;21.29;44.31;99748.88;5027459;28;20311;-68
2023/11/07 11:57:10;;;;;;;;;;;;;;;21.32;45.30;99736.69;5026612;28;19921;-69
2023/11/07 11:59:51;;;;;;;;;;;;;;;21.20;46.00;99734.22;5028015;28;19921;-71
2023/11/07 12:02:39;;;;;;;;;;;;;;;21.21;46.12;99727.31;5012509;28;19930;-69
2023/11/07 12:05:18;;;;;;;;;;;;;;;21.14;45.84;99723.25;5024890;28;20300;-69
2023/11/07 12:08:03;;;;;;;;;;;;;;;21.41;44.32;99730.59;5025350;28;20391;-70
2023/11/07 12:10:29;;;;;;;;;;;;;;;21.48;44.81;99726.94;5027906;28;19974;-71
2023/11/07 12:12:55;;;;;;;;;;;;;;;21.53;44.07;99729.41;5028467;28;19921;-71
2023/11/07 12:15:24;;;;;;;;;;;;;;;21.49;45.14;99731.44;5029760;28;19952;-74
2023/11/07 12:17:51;;;;;;;;;;;;;;;21.46;46.84;99722.47;5032089;28;20334;-70
2023/11/07 12:20:17;;;;;;;;;;;;;;;21.32;46.54;99716.78;5032810;28;19952;-70
2023/11/07 12:22:48;;;;;;;;;;;;;;;21.22;47.96;99728.94;5031127;28;19917;-68
2023/11/07 12:25:17;;;;;;;;;;;;;;;21.27;46.95;99717.97;5034125;28;20007;-67
2023/11/07 12:27:43;;;;;;;;;;;;;;;21.42;46.44;99709.50;5036636;28;20442;-68
2023/11/07 12:30:12;;;;;;;;;;;;;;;21.22;47.66;99709.84;5026890;28;19945;-68
2023/11/07 12:32:38;;;;;;;;;;;;;;;21.19;47.00;99713.50;5030295;28;19979;-67
2023/11/07 12:35:15;;;;;;;;;;;;;;;21.10;46.72;99713.88;5033450;28;19913;-67
2023/11/07 12:37:41;;;;;;;;;;;;;;;21.18;47.13;99720.41;5034897;28;19967;-67
2023/11/07 12:40:07;;;;;;;;;;;;;;;21.23;45.38;99719.19;5030966;28;19917;-68
2023/11/07 12:42:35;;;;;;;;;;;;;;;21.20;46.65;99722.84;5034875;28;20058;-68
2023/11/07 12:45:01;;;;;;;;;;;;;;;21.18;45.90;99726.91;5023856;28;20395;-68